Time;durP1;ratioP1;P1;durP2;ratioP2;P2;SDS_P1;SDS_P2;PMS_P1;PMS_P2;Temp;Humidity;BMP_temperature;BMP_pressure;BME280_temperature;BME280_humidity;BME280_pressure;Samples;Min_cycle;Max_cycle;Signal;HPM_P1;HPM_P2
2022/08/20 00:00:23;;;;;;;8.63;7.70;;;19.90;99.90;;;;;;4661822;28;10000578;-72
2022/08/20 00:02:53;;;;;;;11.70;8.80;;;19.80;99.90;;;;;;4678196;28;10000273;-72
2022/08/20 00:05:31;;;;;;;10.20;8.60;;;19.70;99.90;;;;;;5019209;28;20553;-72
2022/08/20 00:07:57;;;;;;;11.07;8.57;;;19.70;99.90;;;;;;5008105;28;20022;-72
2022/08/20 00:10:24;;;;;;;10.40;8.38;;;19.60;99.90;;;;;;5009915;28;20032;-72
2022/08/20 00:12:52;;;;;;;9.32;8.23;;;19.60;99.90;;;;;;5010965;28;20247;-72
2022/08/20 00:15:20;;;;;;;8.20;7.40;;;19.60;99.90;;;;;;5006715;28;20026;-72
2022/08/20 00:17:50;;;;;;;11.10;8.55;;;19.60;99.90;;;;;;5006747;28;20470;-72
2022/08/20 00:20:18;;;;;;;9.15;8.20;;;19.60;99.90;;;;;;5034472;28;20033;-72
2022/08/20 00:22:44;;;;;;;10.77;8.80;;;19.60;99.90;;;;;;5024702;28;20109;-72
2022/08/20 00:25:11;;;;;;;13.68;9.48;;;19.50;99.90;;;;;;5025312;28;20108;-72
2022/08/20 00:27:37;;;;;;;9.85;8.85;;;19.50;99.90;;;;;;5008884;28;20473;-73
2022/08/20 00:30:06;;;;;;;9.43;8.20;;;19.50;99.90;;;;;;5015369;28;20116;-73
2022/08/20 00:32:47;;;;;;;9.13;8.15;;;19.50;99.90;;;;;;5009746;28;20022;-72
2022/08/20 00:35:18;;;;;;;12.80;11.25;;;19.50;99.90;;;;;;5017371;28;20497;-73
2022/08/20 00:37:44;;;;;;;10.68;9.15;;;19.50;99.90;;;;;;5008304;28;20057;-72
2022/08/20 00:40:13;;;;;;;12.55;10.32;;;19.50;99.90;;;;;;5008753;28;20152;-73
2022/08/20 00:42:44;;;;;;;11.43;10.23;;;19.50;99.90;;;;;;5025334;28;20037;-73
2022/08/20 00:45:11;;;;;;;10.48;9.38;;;19.50;99.90;;;;;;5011499;28;20036;-73
2022/08/20 00:47:42;;;;;;;13.05;10.38;;;19.50;99.90;;;;;;5012874;28;20014;-73
2022/08/20 00:50:09;;;;;;;16.45;11.95;;;19.40;99.90;;;;;;5008135;28;20394;-72
2022/08/20 00:52:35;;;;;;;17.27;14.10;;;19.40;99.90;;;;;;5025910;28;20028;-72
2022/08/20 00:55:03;;;;;;;15.98;12.75;;;19.40;99.90;;;;;;5023893;28;20079;-72
2022/08/20 00:57:37;;;;;;;13.55;11.32;;;19.30;99.90;;;;;;5027385;28;20251;-72
2022/08/20 01:00:10;;;;;;;14.30;12.52;;;19.30;99.90;;;;;;5016617;28;20618;-72
2022/08/20 01:02:36;;;;;;;;;;;19.30;99.90;;;;;;5012861;28;20657;-72
2022/08/20 01:05:04;;;;;;;12.00;10.80;;;19.20;99.90;;;;;;5014104;28;19906;-72
2022/08/20 01:07:33;;;;;;;12.90;10.68;;;19.20;99.90;;;;;;5025919;28;20029;-72
2022/08/20 01:10:14;;;;;;;11.57;10.45;;;19.20;99.90;;;;;;5026979;28;20041;-72
2022/08/20 01:12:42;;;;;;;14.85;12.07;;;19.20;99.90;;;;;;5026233;28;20083;-72
2022/08/20 01:15:12;;;;;;;13.23;11.88;;;19.20;99.90;;;;;;5026292;28;20620;-72
2022/08/20 01:17:44;;;;;;;13.63;12.23;;;19.20;99.90;;;;;;5019959;28;20072;-72
2022/08/20 01:20:17;;;;;;;12.83;11.33;;;19.10;99.90;;;;;;5016836;28;20553;-72
2022/08/20 01:25:54;;;;;;;11.93;10.05;;;19.10;99.90;;;;;;5027001;28;20083;-72
2022/08/20 01:28:27;;;;;;;14.18;11.57;;;19.10;99.90;;;;;;5027105;28;20021;-73
2022/08/20 01:30:53;;;;;;;;;;;19.10;99.90;;;;;;5025874;28;20092;-72
2022/08/20 01:33:21;;;;;;;13.18;11.35;;;19.10;99.90;;;;;;5015055;28;20365;-72
2022/08/20 01:35:48;;;;;;;12.43;10.70;;;19.00;99.90;;;;;;5008836;28;20105;-73
2022/08/20 01:38:13;;;;;;;14.32;11.52;;;19.00;99.90;;;;;;5015104;28;20046;-72
2022/08/20 01:41:16;;;;;;;12.63;11.32;;;19.00;99.90;;;;;;5007292;28;20119;-72
2022/08/20 01:43:45;;;;;;;15.40;12.10;;;19.00;99.90;;;;;;5019611;28;20022;-72
2022/08/20 01:46:12;;;;;;;13.82;12.30;;;19.00;99.90;;;;;;5025465;28;20489;-73
2022/08/20 01:48:40;;;;;;;13.18;11.77;;;18.90;99.90;;;;;;5012581;28;20103;-73
2022/08/20 01:51:13;;;;;;;14.55;12.52;;;18.90;99.90;;;;;;5009633;28;20485;-73
2022/08/20 01:53:43;;;;;;;14.95;13.10;;;18.90;99.90;;;;;;5016357;28;20025;-73
2022/08/20 01:56:13;;;;;;;17.30;14.48;;;18.90;99.90;;;;;;5014463;28;20387;-73
2022/08/20 01:58:45;;;;;;;16.55;14.55;;;18.90;99.90;;;;;;5006801;28;20417;-73
2022/08/20 02:01:25;;;;;;;17.05;14.43;;;18.80;99.90;;;;;;5005036;28;20444;-72
2022/08/20 02:03:52;;;;;;;20.55;16.20;;;18.80;99.90;;;;;;5005128;28;20481;-73
2022/08/20 02:06:24;;;;;;;17.77;15.63;;;18.80;99.90;;;;;;5005944;28;20559;-72
2022/08/20 02:08:52;;;;;;;20.13;16.63;;;18.80;99.90;;;;;;5007357;28;20041;-72
2022/08/20 02:11:18;;;;;;;20.25;16.08;;;18.90;99.90;;;;;;5014459;28;20029;-72
2022/08/20 02:13:43;;;;;;;19.98;15.20;;;18.90;99.90;;;;;;5019416;28;20470;-72
2022/08/20 02:16:09;;;;;;;16.27;13.75;;;18.80;99.90;;;;;;5026602;28;20120;-72
2022/08/20 02:18:35;;;;;;;20.08;15.20;;;18.80;99.90;;;;;;5026247;28;20049;-72
2022/08/20 02:21:02;;;;;;;18.02;14.38;;;18.80;99.90;;;;;;5023842;28;20025;-72
2022/08/20 02:23:28;;;;;;;18.27;15.32;;;18.80;99.90;;;;;;5004819;28;20030;-72
2022/08/20 02:25:54;;;;;;;16.67;14.20;;;18.70;99.90;;;;;;5011216;28;20032;-72
2022/08/20 02:28:20;;;;;;;20.33;15.88;;;18.70;99.90;;;;;;5009213;28;20113;-72
2022/08/20 02:30:50;;;;;;;23.27;17.98;;;18.70;99.90;;;;;;5013222;28;21043;-72
2022/08/20 02:33:18;;;;;;;22.58;17.60;;;18.70;99.90;;;;;;5008668;28;20469;-72
2022/08/20 02:35:47;;;;;;;21.83;17.60;;;18.60;99.90;;;;;;5010027;28;20485;-72
2022/08/20 02:38:14;;;;;;;17.02;15.00;;;18.60;99.90;;;;;;5027163;28;20036;-72
2022/08/20 02:40:42;;;;;;;16.13;14.07;;;18.60;99.90;;;;;;5010543;28;20022;-72
2022/08/20 02:43:08;;;;;;;17.10;14.23;;;18.50;99.90;;;;;;5016223;28;20026;-72
2022/08/20 02:45:42;;;;;;;17.83;14.88;;;18.50;99.90;;;;;;5014836;28;20037;-72
2022/08/20 02:48:17;;;;;;;20.17;14.73;;;18.50;99.90;;;;;;5018482;28;20072;-72
2022/08/20 02:50:43;;;;;;;21.63;17.88;;;18.50;99.90;;;;;;5011428;28;20030;-73
2022/08/20 02:53:09;;;;;;;20.58;16.50;;;18.50;99.90;;;;;;5008488;28;20029;-72
2022/08/20 02:55:35;;;;;;;16.88;14.63;;;18.50;99.90;;;;;;5021060;28;20018;-73
2022/08/20 02:58:00;;;;;;;17.15;15.20;;;18.40;99.90;;;;;;5010220;28;20073;-72
2022/08/20 03:00:30;;;;;;;19.63;15.63;;;18.40;99.90;;;;;;5010925;28;20026;-72
2022/08/20 03:02:55;;;;;;;18.42;15.00;;;18.40;99.90;;;;;;5021364;28;20041;-72
2022/08/20 03:05:21;;;;;;;17.80;14.98;;;18.40;99.90;;;;;;5010066;28;20021;-72
2022/08/20 03:07:52;;;;;;;19.65;14.98;;;18.40;99.90;;;;;;5009924;28;20026;-72
2022/08/20 03:10:25;;;;;;;15.88;13.95;;;18.50;99.90;;;;;;5010225;28;20026;-72
2022/08/20 03:12:51;;;;;;;15.10;13.50;;;18.50;99.90;;;;;;5008286;28;20115;-73
2022/08/20 03:15:17;;;;;;;14.07;12.57;;;18.50;99.90;;;;;;5015293;28;20121;-73
2022/08/20 03:17:44;;;;;;;17.13;13.15;;;18.50;99.90;;;;;;5010184;28;20520;-72
2022/08/20 03:20:11;;;;;;;17.90;14.80;;;18.50;99.90;;;;;;5016888;28;20033;-72
2022/08/20 03:22:36;;;;;;;17.35;15.35;;;18.50;99.90;;;;;;5024812;28;20110;-72
2022/08/20 03:25:03;;;;;;;16.70;14.60;;;18.50;99.90;;;;;;5025118;28;20445;-72
2022/08/20 03:27:28;;;;;;;16.77;14.57;;;18.50;99.90;;;;;;5024096;28;20040;-72
2022/08/20 03:29:54;;;;;;;18.08;16.05;;;18.50;99.90;;;;;;5029338;28;20477;-72
2022/08/20 03:32:19;;;;;;;18.83;16.13;;;18.50;99.90;;;;;;5026600;28;20105;-72
2022/08/20 03:34:45;;;;;;;17.90;15.38;;;18.50;99.90;;;;;;5028066;28;20083;-73
2022/08/20 03:37:10;;;;;;;22.15;17.25;;;18.50;99.90;;;;;;5024997;28;20032;-72
2022/08/20 03:39:38;;;;;;;23.75;17.90;;;18.50;99.90;;;;;;5009188;28;20030;-72
2022/08/20 03:42:04;;;;;;;21.52;16.85;;;18.50;99.90;;;;;;5022660;28;20470;-72
2022/08/20 03:44:29;;;;;;;21.65;16.45;;;18.50;99.90;;;;;;5027756;28;20045;-72
2022/08/20 03:46:55;;;;;;;24.75;18.23;;;18.50;99.90;;;;;;5029222;28;20086;-72
2022/08/20 03:49:22;;;;;;;21.23;17.25;;;18.60;99.90;;;;;;5028194;28;20705;-72
2022/08/20 03:51:49;;;;;;;17.25;14.85;;;18.60;99.90;;;;;;5022529;28;20030;-72
2022/08/20 03:54:15;;;;;;;16.63;14.02;;;18.50;99.90;;;;;;5016547;28;20418;-72
2022/08/20 03:56:40;;;;;;;16.08;14.38;;;18.60;99.90;;;;;;5020254;28;20076;-72
2022/08/20 03:59:07;;;;;;;18.75;14.35;;;18.50;99.90;;;;;;5008571;28;20096;-72
2022/08/20 04:01:32;;;;;;;14.35;12.85;;;18.50;99.90;;;;;;5012260;28;20422;-72
2022/08/20 04:03:58;;;;;;;17.13;12.50;;;18.50;99.90;;;;;;5047029;28;20021;-72
2022/08/20 04:06:25;;;;;;;15.20;13.60;;;18.50;99.90;;;;;;5041835;28;20298;-72
2022/08/20 04:08:52;;;;;;;14.07;12.45;;;18.50;99.90;;;;;;5014279;28;20034;-73
2022/08/20 04:11:18;;;;;;;14.55;13.02;;;18.50;99.90;;;;;;5022496;28;20022;-72
2022/08/20 04:13:44;;;;;;;13.27;11.77;;;18.50;99.90;;;;;;5026712;28;20053;-72
2022/08/20 04:16:09;;;;;;;13.77;12.38;;;18.40;99.90;;;;;;5026880;28;20021;-72
2022/08/20 04:18:35;;;;;;;15.88;13.93;;;18.40;99.90;;;;;;5028298;28;20127;-72
2022/08/20 04:21:03;;;;;;;19.73;15.23;;;18.40;99.90;;;;;;5022856;28;20061;-72
2022/08/20 04:23:30;;;;;;;17.33;15.52;;;18.40;99.90;;;;;;5024040;28;20124;-72
2022/08/20 04:25:56;;;;;;;16.55;13.75;;;18.40;99.90;;;;;;5009712;28;20486;-73
2022/08/20 04:28:25;;;;;;;15.80;13.95;;;18.40;99.90;;;;;;5014882;28;20505;-72
2022/08/20 04:30:53;;;;;;;17.20;14.45;;;18.50;99.90;;;;;;5006638;28;20026;-72
2022/08/20 04:33:20;;;;;;;17.75;15.27;;;18.40;99.90;;;;;;5008278;28;20105;-72
2022/08/20 04:35:46;;;;;;;15.73;13.60;;;18.40;99.90;;;;;;5008104;28;20045;-72
2022/08/20 04:38:15;;;;;;;14.80;12.68;;;18.40;99.90;;;;;;5014402;28;20029;-72
2022/08/20 04:40:53;;;;;;;14.23;12.73;;;18.40;99.90;;;;;;5023923;28;20018;-72
2022/08/20 04:43:24;;;;;;;14.43;12.88;;;18.50;99.90;;;;;;5015271;28;20024;-72
2022/08/20 04:45:51;;;;;;;16.60;13.90;;;18.50;99.90;;;;;;5026701;28;20045;-72
2022/08/20 04:48:18;;;;;;;16.13;13.55;;;18.50;99.90;;;;;;5027599;28;20393;-72
2022/08/20 04:50:45;;;;;;;18.65;15.18;;;18.60;99.90;;;;;;5028013;28;20032;-72
2022/08/20 04:53:15;;;;;;;20.65;16.27;;;18.60;99.90;;;;;;5024913;28;20030;-72
2022/08/20 04:55:41;;;;;;;18.90;15.45;;;18.70;99.90;;;;;;5008697;28;20025;-72
2022/08/20 04:58:20;;;;;;;16.85;15.15;;;18.70;99.90;;;;;;5016821;28;20033;-72
2022/08/20 05:00:48;;;;;;;16.70;14.20;;;18.60;99.90;;;;;;5006312;28;20045;-72
2022/08/20 05:03:16;;;;;;;17.73;13.20;;;18.70;99.90;;;;;;5012414;28;20599;-72
2022/08/20 05:05:43;;;;;;;18.25;14.65;;;18.70;99.90;;;;;;5006424;28;20030;-72
2022/08/20 05:08:09;;;;;;;18.70;14.95;;;18.70;99.90;;;;;;5007920;28;20032;-72
2022/08/20 05:10:36;;;;;;;18.65;15.00;;;18.70;99.90;;;;;;5012942;28;20017;-72
2022/08/20 05:13:03;;;;;;;21.80;15.48;;;18.70;99.90;;;;;;5011682;28;20062;-72
2022/08/20 05:15:28;;;;;;;18.85;14.93;;;18.80;99.90;;;;;;5016781;28;20033;-72
2022/08/20 05:17:59;;;;;;;16.73;14.93;;;18.80;99.90;;;;;;5013849;28;20030;-72
2022/08/20 05:20:30;;;;;;;18.13;14.80;;;18.80;99.90;;;;;;5014254;28;20038;-73
2022/08/20 05:22:59;;;;;;;15.93;14.23;;;18.80;99.90;;;;;;5006134;28;20510;-73
2022/08/20 05:25:28;;;;;;;16.90;13.10;;;18.80;99.90;;;;;;5013915;28;20039;-72
2022/08/20 05:28:08;;;;;;;16.08;14.38;;;18.70;99.90;;;;;;5021301;28;20053;-72
2022/08/20 05:30:36;;;;;;;16.48;13.90;;;18.70;99.90;;;;;;5005698;28;20376;-72
2022/08/20 05:33:04;;;;;;;15.25;13.18;;;18.70;99.90;;;;;;5014004;28;20041;-73
2022/08/20 05:35:33;;;;;;;16.10;13.90;;;18.70;99.90;;;;;;5011657;28;20392;-73
2022/08/20 05:38:00;;;;;;;15.70;13.57;;;18.70;99.90;;;;;;5009926;28;20525;-72
2022/08/20 05:40:26;;;;;;;19.48;15.43;;;18.70;99.90;;;;;;5018338;28;20038;-72
2022/08/20 05:42:52;;;;;;;16.23;14.48;;;18.70;99.90;;;;;;5003789;28;20375;-73
2022/08/20 05:45:19;;;;;;;20.42;15.73;;;18.80;99.90;;;;;;5006882;28;20258;-72
2022/08/20 05:47:44;;;;;;;17.50;14.07;;;18.80;99.90;;;;;;5006885;28;20569;-72
2022/08/20 05:50:16;;;;;;;19.10;15.02;;;18.80;99.90;;;;;;5017132;28;20116;-73
2022/08/20 05:52:42;;;;;;;23.00;16.42;;;18.80;99.90;;;;;;5019993;28;20465;-73
2022/08/20 05:55:12;;;;;;;18.95;15.43;;;18.80;99.90;;;;;;5004824;28;20072;-73
2022/08/20 05:57:38;;;;;;;19.42;15.65;;;18.80;99.90;;;;;;5006986;28;20125;-73
2022/08/20 06:00:07;;;;;;;20.77;15.05;;;18.80;99.90;;;;;;5009138;28;20127;-73
2022/08/20 06:05:18;;;;;;;22.63;18.30;;;18.70;99.90;;;;;;5026074;28;20076;-77
2022/08/20 06:07:44;;;;;;;16.73;14.40;;;18.60;99.90;;;;;;5008274;28;20120;-77
2022/08/20 06:10:10;;;;;;;23.42;18.02;;;18.60;99.90;;;;;;5014269;28;20339;-76
2022/08/20 06:12:36;;;;;;;22.52;18.42;;;18.50;99.90;;;;;;5011892;28;20601;-77
2022/08/20 06:15:06;;;;;;;21.35;17.23;;;18.50;99.90;;;;;;5020918;28;20397;-77
2022/08/20 06:17:32;;;;;;;20.45;17.45;;;18.40;99.90;;;;;;5019439;28;20112;-76
2022/08/20 06:20:01;;;;;;;22.25;19.20;;;18.40;99.90;;;;;;5022685;28;20037;-76
2022/08/20 06:22:27;;;;;;;25.52;19.38;;;18.40;99.90;;;;;;5017961;28;20057;-77
2022/08/20 06:24:52;;;;;;;23.67;18.13;;;18.40;99.90;;;;;;5015093;28;20076;-76
2022/08/20 06:27:19;;;;;;;23.98;19.13;;;18.40;99.90;;;;;;5014697;28;20096;-77
2022/08/20 06:29:45;;;;;;;19.38;17.33;;;18.40;99.90;;;;;;5022583;28;20112;-76
2022/08/20 06:32:11;;;;;;;20.35;17.70;;;18.40;99.90;;;;;;5024601;28;20113;-76
2022/08/20 06:34:36;;;;;;;23.25;19.08;;;18.30;99.90;;;;;;5017538;28;20100;-77
2022/08/20 06:37:12;;;;;;;20.00;17.25;;;18.20;99.90;;;;;;5021794;28;20553;-77
2022/08/20 06:39:37;;;;;;;20.42;18.30;;;18.10;99.90;;;;;;5016410;28;20030;-77
2022/08/20 06:42:03;;;;;;;21.08;18.75;;;18.10;99.90;;;;;;5014750;28;20084;-77
2022/08/20 06:44:28;;;;;;;19.90;17.27;;;18.20;99.90;;;;;;5012646;28;20126;-77
2022/08/20 06:46:59;;;;;;;18.92;16.92;;;18.20;99.90;;;;;;5024098;28;20112;-77
2022/08/20 06:49:25;;;;;;;18.23;15.10;;;18.10;99.90;;;;;;5022061;28;20034;-77
2022/08/20 06:51:50;;;;;;;21.27;18.20;;;18.10;99.90;;;;;;5020195;28;20044;-77
2022/08/20 06:54:16;;;;;;;21.88;18.98;;;18.20;99.90;;;;;;5018320;28;20026;-77
2022/08/20 06:56:43;;;;;;;20.88;18.70;;;18.20;99.90;;;;;;5012895;28;20101;-77
2022/08/20 06:59:08;;;;;;;18.63;16.65;;;18.20;99.90;;;;;;5009538;28;20050;-77
2022/08/20 07:01:34;;;;;;;24.02;17.90;;;18.20;99.90;;;;;;5015450;28;20029;-77
2022/08/20 07:04:00;;;;;;;23.58;17.65;;;18.30;99.90;;;;;;5013580;28;20032;-76
2022/08/20 07:06:26;;;;;;;19.63;17.52;;;18.30;99.90;;;;;;5017050;28;20040;-77
2022/08/20 07:08:52;;;;;;;23.08;18.98;;;18.40;99.90;;;;;;5015099;28;20029;-76
2022/08/20 07:11:19;;;;;;;20.13;17.77;;;18.50;99.90;;;;;;5014160;28;20026;-76
2022/08/20 07:13:45;;;;;;;20.20;18.00;;;18.60;99.90;;;;;;5012948;28;20033;-76
2022/08/20 07:16:10;;;;;;;22.00;18.13;;;18.60;99.90;;;;;;5025330;28;20386;-76
2022/08/20 07:18:36;;;;;;;24.00;18.45;;;18.70;99.90;;;;;;5016709;28;20025;-76
2022/08/20 07:21:02;;;;;;;20.33;18.13;;;18.80;99.90;;;;;;5022386;28;20037;-77
2022/08/20 07:23:30;;;;;;;19.70;17.10;;;18.90;99.90;;;;;;5028690;28;20025;-76
2022/08/20 07:25:55;;;;;;;23.20;17.88;;;19.00;99.90;;;;;;5028386;28;20030;-76
2022/08/20 07:28:24;;;;;;;19.67;16.35;;;19.10;99.90;;;;;;5019065;28;20403;-76
2022/08/20 07:33:39;;;;;;;20.40;16.85;;;19.30;99.90;;;;;;5013068;28;20036;-76
2022/08/20 07:36:06;;;;;;;18.00;16.10;;;19.50;99.90;;;;;;5016106;28;20037;-76
2022/08/20 07:38:32;;;;;;;16.73;15.02;;;19.60;99.90;;;;;;5028889;28;20505;-76
2022/08/20 07:41:02;;;;;;;20.33;17.42;;;19.80;99.90;;;;;;5026839;28;20484;-75
2022/08/20 07:43:28;;;;;;;20.75;18.15;;;19.90;99.90;;;;;;5020199;28;20426;-75
2022/08/20 07:45:59;;;;;;;19.75;16.58;;;20.10;99.90;;;;;;5026614;28;20529;-75
2022/08/20 07:48:29;;;;;;;21.15;18.80;;;20.10;99.90;;;;;;5016837;28;20466;-75
2022/08/20 07:50:56;;;;;;;18.42;16.52;;;20.30;99.90;;;;;;5022532;28;20032;-75
2022/08/20 07:53:22;;;;;;;18.42;15.25;;;20.40;99.90;;;;;;5015370;28;20029;-76
2022/08/20 07:55:48;;;;;;;15.52;13.98;;;20.50;99.90;;;;;;5014552;28;20124;-76
2022/08/20 07:58:18;;;;;;;17.25;15.50;;;20.60;99.90;;;;;;5023811;28;20124;-76
2022/08/20 08:00:44;;;;;;;17.60;15.68;;;20.70;99.90;;;;;;5019999;28;20098;-76
2022/08/20 08:03:10;;;;;;;19.55;16.25;;;21.00;99.90;;;;;;5019686;28;20083;-76
2022/08/20 08:05:39;;;;;;;16.95;14.95;;;21.20;99.90;;;;;;5027236;28;20030;-76
2022/08/20 08:08:08;;;;;;;14.43;11.80;;;21.20;99.90;;;;;;5019378;28;20062;-76
2022/08/20 08:10:35;;;;;;;12.20;11.00;;;21.20;99.90;;;;;;5008923;28;20021;-76
2022/08/20 08:13:06;;;;;;;13.77;12.20;;;21.30;99.90;;;;;;5015189;28;20100;-75
2022/08/20 08:15:34;;;;;;;13.77;12.13;;;21.40;99.90;;;;;;5019508;28;20056;-76
2022/08/20 08:18:06;;;;;;;16.27;14.57;;;21.50;99.90;;;;;;5024784;28;20021;-76
2022/08/20 08:20:37;;;;;;;19.50;16.00;;;21.70;99.90;;;;;;5025956;28;20033;-76
2022/08/20 08:23:03;;;;;;;18.75;15.23;;;21.80;99.90;;;;;;5019559;28;20040;-75
2022/08/20 08:25:29;;;;;;;17.80;15.32;;;21.90;99.90;;;;;;5018535;28;20041;-76
2022/08/20 08:27:55;;;;;;;16.73;14.90;;;22.00;99.90;;;;;;5022952;28;20056;-76
2022/08/20 08:30:21;;;;;;;15.48;13.60;;;22.30;99.90;;;;;;5020761;28;20508;-76
2022/08/20 08:35:31;;;;;;;14.25;12.68;;;22.70;99.90;;;;;;5019579;28;20551;-76
2022/08/20 08:37:58;;;;;;;11.55;10.35;;;22.90;99.90;;;;;;5017687;28;20496;-76
2022/08/20 08:40:24;;;;;;;10.40;9.30;;;23.10;99.90;;;;;;5018595;28;20034;-75
2022/08/20 08:42:56;;;;;;;11.20;9.23;;;23.20;99.90;;;;;;5023816;28;20044;-76
2022/08/20 08:45:30;;;;;;;11.50;9.35;;;23.40;99.90;;;;;;5016737;28;20067;-75
2022/08/20 08:47:57;;;;;;;11.13;9.48;;;23.30;99.90;;;;;;5022757;28;20504;-75
2022/08/20 08:50:32;;;;;;;10.77;9.68;;;23.10;99.90;;;;;;5022654;28;20033;-75
2022/08/20 08:53:01;;;;;;;13.35;11.10;;;22.90;99.90;;;;;;5026072;28;20073;-75
2022/08/20 08:55:28;;;;;;;11.68;9.00;;;22.90;99.90;;;;;;5024733;28;20034;-76
2022/08/20 08:57:58;;;;;;;13.80;10.30;;;23.10;99.90;;;;;;5008406;28;20045;-73
2022/08/20 09:00:27;;;;;;;10.98;9.02;;;23.10;99.90;;;;;;5017473;28;20410;-73
2022/08/20 09:03:02;;;;;;;9.18;8.20;;;23.30;99.90;;;;;;5008437;28;20448;-73
2022/08/20 09:05:38;;;;;;;5.90;5.25;;;23.50;99.90;;;;;;5021388;28;20029;-73
2022/08/20 09:08:10;;;;;;;4.93;4.13;;;23.70;99.90;;;;;;5025761;28;20042;-74
2022/08/20 09:10:37;;;;;;;5.10;3.10;;;23.90;99.90;;;;;;5022073;28;20629;-73
2022/08/20 09:13:04;;;;;;;2.60;2.40;;;24.10;99.90;;;;;;5017859;28;20461;-74
2022/08/20 09:15:29;;;;;;;2.33;2.13;;;24.30;99.90;;;;;;5018192;28;20032;-73
2022/08/20 09:18:05;;;;;;;1.87;1.72;;;24.40;99.90;;;;;;4652776;28;10002772;-73
2022/08/20 09:20:30;;;;;;;3.70;1.70;;;24.40;99.90;;;;;;5020446;28;20412;-73
2022/08/20 09:22:56;;;;;;;2.45;1.70;;;24.40;99.90;;;;;;5029731;28;20087;-73
2022/08/20 09:25:22;;;;;;;1.92;1.80;;;24.50;99.90;;;;;;5036392;28;20037;-74
2022/08/20 09:27:48;;;;;;;2.03;1.83;;;24.60;99.90;;;;;;5039198;28;20017;-73
2022/08/20 09:30:15;;;;;;;2.00;1.80;;;24.50;99.90;;;;;;5031013;28;20056;-74
2022/08/20 09:32:41;;;;;;;1.80;1.70;;;24.40;99.90;;;;;;5025701;28;20021;-73
2022/08/20 09:35:07;;;;;;;1.77;1.48;;;24.50;99.90;;;;;;5036615;28;20029;-73
2022/08/20 09:37:33;;;;;;;1.40;1.20;;;24.60;99.90;;;;;;5038176;28;20033;-73
2022/08/20 09:39:59;;;;;;;1.30;1.20;;;24.70;99.90;;;;;;5038615;28;20535;-72
2022/08/20 09:42:28;;;;;;;1.10;1.00;;;24.60;99.90;;;;;;5035554;28;20041;-73
2022/08/20 09:44:54;;;;;;;1.30;1.20;;;24.60;99.90;;;;;;5038152;28;20032;-72
2022/08/20 09:47:20;;;;;;;2.95;1.30;;;24.90;99.90;;;;;;5029536;28;20037;-73
2022/08/20 09:49:46;;;;;;;1.25;1.00;;;24.90;99.90;;;;;;5028102;28;20033;-72
2022/08/20 09:52:28;;;;;;;1.55;1.10;;;24.80;99.90;;;;;;5013795;28;20038;-72
2022/08/20 09:54:57;;;;;;;1.02;0.98;;;24.60;99.90;;;;;;5020127;28;20083;-73
2022/08/20 09:57:24;;;;;;;0.95;0.95;;;24.30;99.90;;;;;;5015141;28;20044;-72
2022/08/20 10:00:03;;;;;;;3.53;1.00;;;24.10;99.90;;;;;;5002883;28;20037;-73
2022/08/20 10:02:29;;;;;;;1.60;0.90;;;24.00;99.90;;;;;;5006701;28;20021;-73
2022/08/20 10:04:54;;;;;;;1.00;0.88;;;24.20;99.90;;;;;;5007501;28;20044;-73
2022/08/20 10:07:20;;;;;;;0.70;0.70;;;24.40;99.90;;;;;;5015857;28;20080;-72
2022/08/20 10:09:46;;;;;;;3.67;0.77;;;24.60;99.90;;;;;;5015262;28;20064;-73
2022/08/20 10:12:12;;;;;;;0.77;0.73;;;24.90;99.90;;;;;;5009231;28;20026;-72
2022/08/20 10:14:37;;;;;;;0.65;0.65;;;24.90;99.90;;;;;;5021140;28;20032;-72
2022/08/20 10:17:03;;;;;;;1.10;0.70;;;24.90;99.90;;;;;;5002797;28;20034;-73
2022/08/20 10:19:30;;;;;;;0.50;0.50;;;24.80;99.90;;;;;;5011857;28;20059;-73
2022/08/20 10:21:56;;;;;;;0.60;0.60;;;24.90;99.90;;;;;;5015006;28;20072;-73
2022/08/20 10:24:23;;;;;;;0.80;0.80;;;24.90;99.90;;;;;;5018356;28;20489;-72
2022/08/20 10:26:49;;;;;;;0.60;0.60;;;25.00;99.90;;;;;;5015139;28;20038;-72
2022/08/20 10:29:15;;;;;;;0.75;0.63;;;25.20;99.90;;;;;;5019536;28;20486;-73
2022/08/20 10:31:41;;;;;;;0.57;0.50;;;25.30;99.90;;;;;;5005876;28;20513;-72
2022/08/20 10:34:06;;;;;;;0.75;0.50;;;25.40;99.90;;;;;;5012396;28;20030;-73
2022/08/20 10:36:32;;;;;;;1.67;0.43;;;25.60;99.90;;;;;;5020537;28;20315;-72
2022/08/20 10:38:58;;;;;;;1.45;0.50;;;25.60;99.90;;;;;;5016947;28;20030;-72
2022/08/20 10:41:23;;;;;;;1.17;0.50;;;25.70;99.90;;;;;;5005372;28;20029;-72
2022/08/20 10:43:49;;;;;;;0.40;0.40;;;25.80;99.90;;;;;;5015836;28;20041;-72
2022/08/20 10:46:15;;;;;;;0.30;0.30;;;25.90;99.90;;;;;;5023189;28;20087;-72
2022/08/20 10:48:41;;;;;;;0.47;0.47;;;26.10;99.90;;;;;;5018827;28;20031;-72
2022/08/20 10:51:06;;;;;;;0.57;0.40;;;26.30;99.70;;;;;;5022353;28;20041;-72
2022/08/20 10:53:32;;;;;;;0.40;0.40;;;26.50;99.70;;;;;;5014499;28;20057;-72
2022/08/20 10:55:58;;;;;;;0.40;0.40;;;26.60;98.40;;;;;;5007601;28;20113;-72
2022/08/20 10:58:24;;;;;;;0.68;0.50;;;26.70;97.90;;;;;;5022038;28;20477;-72
2022/08/20 11:00:50;;;;;;;1.65;0.40;;;26.90;98.00;;;;;;5021448;28;20029;-72
2022/08/20 11:03:16;;;;;;;0.43;0.40;;;27.00;97.40;;;;;;5025274;28;20099;-71
2022/08/20 11:05:42;;;;;;;0.57;0.47;;;27.10;97.40;;;;;;5043612;28;20465;-72
2022/08/20 11:08:07;;;;;;;0.40;0.40;;;27.10;96.70;;;;;;5022886;28;20029;-71
2022/08/20 11:10:34;;;;;;;0.63;0.30;;;27.30;96.90;;;;;;5010591;28;20037;-71
2022/08/20 11:13:02;;;;;;;0.50;0.50;;;27.50;96.60;;;;;;5015008;28;20033;-72
2022/08/20 11:15:28;;;;;;;0.30;0.30;;;27.50;96.60;;;;;;5017003;28;20029;-72
2022/08/20 11:17:55;;;;;;;0.50;0.50;;;27.60;95.30;;;;;;5014873;28;20461;-72
2022/08/20 11:20:23;;;;;;;0.43;0.43;;;27.60;96.10;;;;;;5019409;28;20112;-72
2022/08/20 11:22:49;;;;;;;0.73;0.40;;;27.40;95.20;;;;;;5014528;28;20172;-72
2022/08/20 11:25:15;;;;;;;0.50;0.40;;;27.30;95.50;;;;;;5020659;28;20582;-73
2022/08/20 11:27:44;;;;;;;0.40;0.40;;;27.10;95.10;;;;;;5025316;28;20041;-73
2022/08/20 11:30:41;;;;;;;0.50;0.50;;;26.90;94.70;;;;;;5016157;28;20481;-73
2022/08/20 11:33:07;;;;;;;0.90;0.60;;;26.70;95.70;;;;;;4998951;28;20041;-72
2022/08/20 11:35:35;;;;;;;1.02;0.50;;;26.50;96.70;;;;;;5011808;28;20255;-73
2022/08/20 11:38:01;;;;;;;0.40;0.40;;;26.40;96.20;;;;;;5015474;28;20029;-72
2022/08/20 11:40:28;;;;;;;1.02;0.60;;;26.10;96.20;;;;;;5015342;28;20512;-71
2022/08/20 11:42:54;;;;;;;2.08;0.43;;;26.10;96.90;;;;;;5004285;28;20038;-72
2022/08/20 11:45:20;;;;;;;2.42;0.70;;;26.10;96.90;;;;;;5014372;28;20041;-72
2022/08/20 11:47:45;;;;;;;1.70;0.60;;;26.00;97.20;;;;;;5020162;28;20080;-72
2022/08/20 11:50:14;;;;;;;0.40;0.40;;;25.90;97.50;;;;;;5021602;28;20081;-72
2022/08/20 11:52:40;;;;;;;1.58;0.55;;;25.90;97.30;;;;;;5003299;28;20339;-71
2022/08/20 11:55:09;;;;;;;0.45;0.45;;;25.80;97.10;;;;;;5011302;28;20026;-72
2022/08/20 11:57:36;;;;;;;0.50;0.50;;;25.70;97.90;;;;;;5017001;28;20797;-72
2022/08/20 12:00:06;;;;;;;0.75;0.70;;;25.50;97.30;;;;;;5023682;28;20479;-72
2022/08/20 12:02:32;;;;;;;0.45;0.45;;;25.40;97.80;;;;;;5013388;28;20720;-72
2022/08/20 12:04:57;;;;;;;0.50;0.50;;;25.30;98.30;;;;;;5007866;28;20049;-72
2022/08/20 12:07:24;;;;;;;0.50;0.50;;;25.30;98.10;;;;;;5017056;28;20064;-72
2022/08/20 12:09:51;;;;;;;1.80;0.70;;;25.20;98.30;;;;;;5009888;28;20037;-72
2022/08/20 12:12:18;;;;;;;1.63;1.40;;;24.90;98.40;;;;;;5022199;28;20056;-72
2022/08/20 12:14:43;;;;;;;2.05;1.95;;;24.70;99.90;;;;;;5024366;28;20486;-72
2022/08/20 12:17:13;;;;;;;3.17;2.30;;;24.40;99.90;;;;;;5024265;28;20028;-71
2022/08/20 12:19:41;;;;;;;2.85;1.80;;;24.10;99.90;;;;;;5008732;28;20246;-72
2022/08/20 12:22:07;;;;;;;2.40;2.20;;;23.80;99.90;;;;;;5018884;28;20513;-72
2022/08/20 12:24:33;;;;;;;3.55;2.80;;;23.60;99.90;;;;;;5021948;28;20036;-72
2022/08/20 12:27:29;;;;;;;2.88;2.40;;;23.40;99.90;;;;;;5017670;28;20315;-72
2022/08/20 12:29:57;;;;;;;3.00;2.70;;;23.30;99.90;;;;;;4992990;28;20054;-72
2022/08/20 12:32:25;;;;;;;6.70;3.88;;;23.10;99.90;;;;;;5004801;28;20029;-73
2022/08/20 12:34:52;;;;;;;13.75;5.43;;;22.90;99.90;;;;;;5024791;28;20080;-76
2022/08/20 12:37:20;;;;;;;8.15;4.88;;;22.80;99.90;;;;;;5018739;28;20147;-75
2022/08/20 12:39:50;;;;;;;7.28;4.88;;;22.60;99.90;;;;;;5019554;28;20099;-73
2022/08/20 12:42:17;;;;;;;7.32;5.18;;;22.40;99.90;;;;;;5006643;28;20040;-74
2022/08/20 12:44:43;;;;;;;8.50;5.18;;;22.40;99.90;;;;;;5016141;28;20112;-74
2022/08/20 12:47:10;;;;;;;4.82;4.43;;;22.30;99.90;;;;;;5017110;28;20083;-74